sensor_id;sensor_type;location;lat;lon;timestamp;P1;durP1;ratioP1;P2;durP2;ratioP2
7213;SDS011;3648;50.614;13.830;2023-03-21T00:02:09;4.87;;;4.00;;
7213;SDS011;3648;50.614;13.830;2023-03-21T00:04:36;5.70;;;4.33;;
7213;SDS011;3648;50.614;13.830;2023-03-21T00:07:03;7.30;;;4.50;;
7213;SDS011;3648;50.614;13.830;2023-03-21T00:09:30;5.23;;;4.07;;
7213;SDS011;3648;50.614;13.830;2023-03-21T00:11:57;5.53;;;5.00;;
7213;SDS011;3648;50.614;13.830;2023-03-21T00:14:26;5.63;;;4.97;;
7213;SDS011;3648;50.614;13.830;2023-03-21T00:16:55;6.50;;;5.37;;
7213;SDS011;3648;50.614;13.830;2023-03-21T00:19:23;7.20;;;5.83;;
7213;SDS011;3648;50.614;13.830;2023-03-21T00:21:53;7.47;;;5.67;;
7213;SDS011;3648;50.614;13.830;2023-03-21T00:24:20;7.87;;;5.87;;
7213;SDS011;3648;50.614;13.830;2023-03-21T00:26:47;9.93;;;7.80;;
7213;SDS011;3648;50.614;13.830;2023-03-21T00:29:15;7.60;;;6.53;;
7213;SDS011;3648;50.614;13.830;2023-03-21T00:31:42;8.23;;;6.03;;
7213;SDS011;3648;50.614;13.830;2023-03-21T00:34:09;8.40;;;6.57;;
7213;SDS011;3648;50.614;13.830;2023-03-21T00:36:37;9.70;;;5.93;;
7213;SDS011;3648;50.614;13.830;2023-03-21T00:39:04;7.50;;;5.50;;
7213;SDS011;3648;50.614;13.830;2023-03-21T00:41:31;8.97;;;6.10;;
7213;SDS011;3648;50.614;13.830;2023-03-21T00:43:58;6.53;;;5.50;;
7213;SDS011;3648;50.614;13.830;2023-03-21T00:46:25;8.03;;;5.73;;
7213;SDS011;3648;50.614;13.830;2023-03-21T00:48:52;7.47;;;5.63;;
7213;SDS011;3648;50.614;13.830;2023-03-21T00:51:20;6.30;;;5.20;;
7213;SDS011;3648;50.614;13.830;2023-03-21T00:53:52;6.03;;;5.13;;
7213;SDS011;3648;50.614;13.830;2023-03-21T00:56:19;6.57;;;5.23;;
7213;SDS011;3648;50.614;13.830;2023-03-21T00:58:46;6.23;;;5.13;;
7213;SDS011;3648;50.614;13.830;2023-03-21T01:01:13;5.77;;;5.13;;
7213;SDS011;3648;50.614;13.830;2023-03-21T01:03:40;6.80;;;5.17;;
7213;SDS011;3648;50.614;13.830;2023-03-21T01:06:12;9.20;;;5.70;;
7213;SDS011;3648;50.614;13.830;2023-03-21T01:08:43;5.77;;;5.17;;
7213;SDS011;3648;50.614;13.830;2023-03-21T01:11:12;7.37;;;5.93;;
7213;SDS011;3648;50.614;13.830;2023-03-21T01:13:41;6.27;;;5.37;;
7213;SDS011;3648;50.614;13.830;2023-03-21T01:16:08;7.17;;;5.40;;
7213;SDS011;3648;50.614;13.830;2023-03-21T01:18:36;9.17;;;6.40;;
7213;SDS011;3648;50.614;13.830;2023-03-21T01:21:05;6.90;;;5.60;;
7213;SDS011;3648;50.614;13.830;2023-03-21T01:23:34;6.80;;;5.60;;
7213;SDS011;3648;50.614;13.830;2023-03-21T01:26:01;7.47;;;5.80;;
7213;SDS011;3648;50.614;13.830;2023-03-21T01:28:30;8.13;;;5.93;;
7213;SDS011;3648;50.614;13.830;2023-03-21T01:30:59;8.40;;;6.63;;
7213;SDS011;3648;50.614;13.830;2023-03-21T01:33:26;6.57;;;5.80;;
7213;SDS011;3648;50.614;13.830;2023-03-21T01:35:54;8.40;;;7.10;;
7213;SDS011;3648;50.614;13.830;2023-03-21T01:38:21;9.67;;;7.00;;
7213;SDS011;3648;50.614;13.830;2023-03-21T01:40:48;9.57;;;6.80;;
7213;SDS011;3648;50.614;13.830;2023-03-21T01:43:20;8.30;;;7.37;;
7213;SDS011;3648;50.614;13.830;2023-03-21T01:48:56;9.40;;;8.00;;
7213;SDS011;3648;50.614;13.830;2023-03-21T01:51:25;9.17;;;8.17;;
7213;SDS011;3648;50.614;13.830;2023-03-21T01:53:54;9.33;;;8.17;;
7213;SDS011;3648;50.614;13.830;2023-03-21T01:56:22;10.47;;;8.07;;
7213;SDS011;3648;50.614;13.830;2023-03-21T01:58:52;10.27;;;8.00;;
7213;SDS011;3648;50.614;13.830;2023-03-21T02:01:23;8.90;;;8.00;;
7213;SDS011;3648;50.614;13.830;2023-03-21T02:03:51;11.13;;;8.70;;
7213;SDS011;3648;50.614;13.830;2023-03-21T02:06:28;8.93;;;7.80;;
7213;SDS011;3648;50.614;13.830;2023-03-21T02:09:02;9.77;;;8.73;;
7213;SDS011;3648;50.614;13.830;2023-03-21T02:11:33;9.97;;;8.30;;
7213;SDS011;3648;50.614;13.830;2023-03-21T02:14:01;11.57;;;8.80;;
7213;SDS011;3648;50.614;13.830;2023-03-21T02:16:32;9.30;;;8.23;;
7213;SDS011;3648;50.614;13.830;2023-03-21T02:22:30;11.43;;;9.57;;
7213;SDS011;3648;50.614;13.830;2023-03-21T02:25:22;9.57;;;8.43;;
7213;SDS011;3648;50.614;13.830;2023-03-21T02:28:17;11.83;;;9.80;;
7213;SDS011;3648;50.614;13.830;2023-03-21T02:33:55;10.77;;;9.67;;
7213;SDS011;3648;50.614;13.830;2023-03-21T02:36:45;8.67;;;7.77;;
7213;SDS011;3648;50.614;13.830;2023-03-21T02:39:16;9.90;;;8.10;;
7213;SDS011;3648;50.614;13.830;2023-03-21T02:41:51;8.00;;;6.80;;
7213;SDS011;3648;50.614;13.830;2023-03-21T02:44:28;7.97;;;6.80;;
7213;SDS011;3648;50.614;13.830;2023-03-21T02:47:01;7.37;;;6.40;;
7213;SDS011;3648;50.614;13.830;2023-03-21T02:49:34;8.33;;;6.60;;
7213;SDS011;3648;50.614;13.830;2023-03-21T02:52:08;7.43;;;6.40;;
7213;SDS011;3648;50.614;13.830;2023-03-21T02:54:39;7.87;;;6.10;;
7213;SDS011;3648;50.614;13.830;2023-03-21T02:57:08;7.27;;;6.33;;
7213;SDS011;3648;50.614;13.830;2023-03-21T02:59:35;7.47;;;5.97;;
7213;SDS011;3648;50.614;13.830;2023-03-21T03:02:04;7.40;;;5.33;;
7213;SDS011;3648;50.614;13.830;2023-03-21T03:04:32;7.17;;;5.70;;
7213;SDS011;3648;50.614;13.830;2023-03-21T03:07:02;7.27;;;5.93;;
7213;SDS011;3648;50.614;13.830;2023-03-21T03:09:50;8.20;;;6.10;;
7213;SDS011;3648;50.614;13.830;2023-03-21T03:12:30;7.90;;;5.97;;
7213;SDS011;3648;50.614;13.830;2023-03-21T03:15:09;6.07;;;5.43;;
7213;SDS011;3648;50.614;13.830;2023-03-21T03:17:48;7.67;;;6.00;;
7213;SDS011;3648;50.614;13.830;2023-03-21T03:20:28;7.97;;;6.57;;
7213;SDS011;3648;50.614;13.830;2023-03-21T03:23:06;8.33;;;6.70;;
7213;SDS011;3648;50.614;13.830;2023-03-21T03:25:41;8.67;;;7.00;;
7213;SDS011;3648;50.614;13.830;2023-03-21T03:28:13;6.70;;;6.00;;
7213;SDS011;3648;50.614;13.830;2023-03-21T03:30:45;6.93;;;5.13;;
7213;SDS011;3648;50.614;13.830;2023-03-21T03:33:14;6.40;;;5.80;;
7213;SDS011;3648;50.614;13.830;2023-03-21T03:35:47;7.67;;;6.07;;
7213;SDS011;3648;50.614;13.830;2023-03-21T03:38:17;8.30;;;5.90;;
7213;SDS011;3648;50.614;13.830;2023-03-21T03:40:47;6.33;;;5.73;;
7213;SDS011;3648;50.614;13.830;2023-03-21T03:43:18;6.60;;;5.80;;
7213;SDS011;3648;50.614;13.830;2023-03-21T03:45:48;6.13;;;5.63;;
7213;SDS011;3648;50.614;13.830;2023-03-21T03:48:20;6.83;;;5.00;;
7213;SDS011;3648;50.614;13.830;2023-03-21T03:50:51;6.53;;;5.10;;
7213;SDS011;3648;50.614;13.830;2023-03-21T03:53:24;6.03;;;5.33;;
7213;SDS011;3648;50.614;13.830;2023-03-21T03:55:55;6.37;;;5.23;;
7213;SDS011;3648;50.614;13.830;2023-03-21T03:58:24;7.63;;;6.43;;
7213;SDS011;3648;50.614;13.830;2023-03-21T04:00:52;6.90;;;5.20;;
7213;SDS011;3648;50.614;13.830;2023-03-21T04:03:20;7.00;;;5.90;;
7213;SDS011;3648;50.614;13.830;2023-03-21T04:05:48;6.20;;;5.60;;
7213;SDS011;3648;50.614;13.830;2023-03-21T04:08:15;6.13;;;5.30;;
7213;SDS011;3648;50.614;13.830;2023-03-21T04:10:43;6.40;;;5.17;;
7213;SDS011;3648;50.614;13.830;2023-03-21T04:13:10;5.77;;;5.20;;
7213;SDS011;3648;50.614;13.830;2023-03-21T04:15:37;6.43;;;5.57;;
7213;SDS011;3648;50.614;13.830;2023-03-21T04:18:05;6.30;;;5.67;;
7213;SDS011;3648;50.614;13.830;2023-03-21T04:20:32;6.27;;;5.00;;
7213;SDS011;3648;50.614;13.830;2023-03-21T04:22:59;7.30;;;5.53;;
7213;SDS011;3648;50.614;13.830;2023-03-21T04:25:26;6.50;;;4.70;;
7213;SDS011;3648;50.614;13.830;2023-03-21T04:27:55;6.23;;;5.27;;
7213;SDS011;3648;50.614;13.830;2023-03-21T04:30:22;4.63;;;4.17;;
7213;SDS011;3648;50.614;13.830;2023-03-21T04:32:50;7.33;;;5.73;;
7213;SDS011;3648;50.614;13.830;2023-03-21T04:35:21;5.40;;;4.90;;
7213;SDS011;3648;50.614;13.830;2023-03-21T04:37:49;5.97;;;5.10;;
7213;SDS011;3648;50.614;13.830;2023-03-21T04:40:16;6.40;;;4.57;;
7213;SDS011;3648;50.614;13.830;2023-03-21T04:42:44;5.17;;;4.67;;
7213;SDS011;3648;50.614;13.830;2023-03-21T04:45:13;6.70;;;4.33;;
7213;SDS011;3648;50.614;13.830;2023-03-21T04:47:41;4.33;;;3.90;;
7213;SDS011;3648;50.614;13.830;2023-03-21T04:50:09;5.67;;;4.23;;
7213;SDS011;3648;50.614;13.830;2023-03-21T04:52:37;5.07;;;4.53;;
7213;SDS011;3648;50.614;13.830;2023-03-21T04:55:04;4.90;;;4.13;;
7213;SDS011;3648;50.614;13.830;2023-03-21T04:57:34;4.63;;;4.23;;
7213;SDS011;3648;50.614;13.830;2023-03-21T05:00:01;5.17;;;4.10;;
7213;SDS011;3648;50.614;13.830;2023-03-21T05:05:01;5.13;;;4.40;;
7213;SDS011;3648;50.614;13.830;2023-03-21T05:07:28;6.30;;;4.60;;
7213;SDS011;3648;50.614;13.830;2023-03-21T05:09:56;5.97;;;4.93;;
7213;SDS011;3648;50.614;13.830;2023-03-21T05:12:23;4.90;;;4.40;;
7213;SDS011;3648;50.614;13.830;2023-03-21T05:14:50;6.23;;;4.50;;
7213;SDS011;3648;50.614;13.830;2023-03-21T05:17:17;6.07;;;4.23;;
7213;SDS011;3648;50.614;13.830;2023-03-21T05:19:48;5.80;;;4.50;;
7213;SDS011;3648;50.614;13.830;2023-03-21T05:22:17;4.47;;;3.63;;
7213;SDS011;3648;50.614;13.830;2023-03-21T05:24:44;5.67;;;4.30;;
7213;SDS011;3648;50.614;13.830;2023-03-21T05:27:14;6.13;;;4.53;;
7213;SDS011;3648;50.614;13.830;2023-03-21T05:29:58;8.87;;;6.30;;
7213;SDS011;3648;50.614;13.830;2023-03-21T05:32:25;8.37;;;5.63;;
7213;SDS011;3648;50.614;13.830;2023-03-21T05:34:54;8.27;;;6.07;;
7213;SDS011;3648;50.614;13.830;2023-03-21T05:37:21;7.60;;;6.77;;
7213;SDS011;3648;50.614;13.830;2023-03-21T05:39:48;5.50;;;4.77;;
7213;SDS011;3648;50.614;13.830;2023-03-21T05:42:15;5.90;;;4.57;;
7213;SDS011;3648;50.614;13.830;2023-03-21T05:44:42;6.73;;;4.80;;
7213;SDS011;3648;50.614;13.830;2023-03-21T05:47:10;9.20;;;5.77;;
7213;SDS011;3648;50.614;13.830;2023-03-21T05:49:37;8.90;;;5.73;;
7213;SDS011;3648;50.614;13.830;2023-03-21T05:52:06;11.23;;;7.00;;
7213;SDS011;3648;50.614;13.830;2023-03-21T05:54:33;10.50;;;6.23;;
7213;SDS011;3648;50.614;13.830;2023-03-21T05:57:00;10.87;;;5.77;;
7213;SDS011;3648;50.614;13.830;2023-03-21T05:59:28;17.87;;;14.20;;
7213;SDS011;3648;50.614;13.830;2023-03-21T06:01:54;22.17;;;16.57;;
7213;SDS011;3648;50.614;13.830;2023-03-21T06:04:21;16.60;;;12.40;;
7213;SDS011;3648;50.614;13.830;2023-03-21T06:06:48;14.47;;;9.77;;
7213;SDS011;3648;50.614;13.830;2023-03-21T06:09:19;11.37;;;8.13;;
7213;SDS011;3648;50.614;13.830;2023-03-21T06:11:46;11.53;;;7.80;;
7213;SDS011;3648;50.614;13.830;2023-03-21T06:14:15;10.23;;;7.60;;
7213;SDS011;3648;50.614;13.830;2023-03-21T06:16:42;16.23;;;12.83;;
7213;SDS011;3648;50.614;13.830;2023-03-21T06:19:09;14.13;;;12.10;;
7213;SDS011;3648;50.614;13.830;2023-03-21T06:21:37;16.37;;;12.50;;
7213;SDS011;3648;50.614;13.830;2023-03-21T06:24:04;13.40;;;9.60;;
7213;SDS011;3648;50.614;13.830;2023-03-21T06:26:32;11.13;;;7.27;;
7213;SDS011;3648;50.614;13.830;2023-03-21T06:28:59;11.77;;;6.77;;
7213;SDS011;3648;50.614;13.830;2023-03-21T06:31:26;10.63;;;5.90;;
7213;SDS011;3648;50.614;13.830;2023-03-21T06:33:53;7.07;;;5.67;;
7213;SDS011;3648;50.614;13.830;2023-03-21T06:36:20;11.40;;;6.63;;
7213;SDS011;3648;50.614;13.830;2023-03-21T06:38:47;14.13;;;6.40;;
7213;SDS011;3648;50.614;13.830;2023-03-21T06:41:14;10.57;;;6.40;;
7213;SDS011;3648;50.614;13.830;2023-03-21T06:43:43;8.80;;;5.23;;
7213;SDS011;3648;50.614;13.830;2023-03-21T06:46:10;9.73;;;5.60;;
7213;SDS011;3648;50.614;13.830;2023-03-21T06:48:37;12.87;;;6.20;;
7213;SDS011;3648;50.614;13.830;2023-03-21T06:51:08;9.53;;;5.43;;
7213;SDS011;3648;50.614;13.830;2023-03-21T06:53:36;11.13;;;7.30;;
7213;SDS011;3648;50.614;13.830;2023-03-21T06:56:04;10.40;;;5.57;;
7213;SDS011;3648;50.614;13.830;2023-03-21T06:58:31;7.63;;;4.80;;
7213;SDS011;3648;50.614;13.830;2023-03-21T07:01:00;6.60;;;4.20;;
7213;SDS011;3648;50.614;13.830;2023-03-21T07:03:28;8.53;;;5.87;;
7213;SDS011;3648;50.614;13.830;2023-03-21T07:05:55;6.20;;;3.90;;
7213;SDS011;3648;50.614;13.830;2023-03-21T07:08:23;6.70;;;4.73;;
7213;SDS011;3648;50.614;13.830;2023-03-21T07:10:53;6.00;;;4.13;;
7213;SDS011;3648;50.614;13.830;2023-03-21T07:13:22;6.37;;;4.90;;
7213;SDS011;3648;50.614;13.830;2023-03-21T07:15:50;8.70;;;6.93;;
7213;SDS011;3648;50.614;13.830;2023-03-21T07:18:19;8.33;;;6.50;;
7213;SDS011;3648;50.614;13.830;2023-03-21T07:20:47;7.13;;;6.20;;
7213;SDS011;3648;50.614;13.830;2023-03-21T07:23:15;8.30;;;6.70;;
7213;SDS011;3648;50.614;13.830;2023-03-21T07:25:42;8.53;;;6.27;;
7213;SDS011;3648;50.614;13.830;2023-03-21T07:28:10;8.63;;;6.00;;
7213;SDS011;3648;50.614;13.830;2023-03-21T07:30:37;10.37;;;7.03;;
7213;SDS011;3648;50.614;13.830;2023-03-21T07:33:04;10.23;;;7.40;;
7213;SDS011;3648;50.614;13.830;2023-03-21T07:35:33;8.43;;;5.40;;
7213;SDS011;3648;50.614;13.830;2023-03-21T07:38:01;7.70;;;5.00;;
7213;SDS011;3648;50.614;13.830;2023-03-21T07:40:28;5.73;;;4.00;;
7213;SDS011;3648;50.614;13.830;2023-03-21T07:42:55;8.93;;;4.80;;
7213;SDS011;3648;50.614;13.830;2023-03-21T07:45:22;5.30;;;3.83;;
7213;SDS011;3648;50.614;13.830;2023-03-21T07:47:51;6.60;;;3.60;;
7213;SDS011;3648;50.614;13.830;2023-03-21T07:50:19;3.70;;;3.30;;
7213;SDS011;3648;50.614;13.830;2023-03-21T07:52:48;4.23;;;3.13;;
7213;SDS011;3648;50.614;13.830;2023-03-21T07:55:15;3.60;;;3.23;;
7213;SDS011;3648;50.614;13.830;2023-03-21T07:57:42;5.00;;;3.60;;
7213;SDS011;3648;50.614;13.830;2023-03-21T08:00:10;5.57;;;3.67;;
7213;SDS011;3648;50.614;13.830;2023-03-21T08:02:47;4.60;;;3.40;;
7213;SDS011;3648;50.614;13.830;2023-03-21T08:05:18;6.53;;;4.50;;
7213;SDS011;3648;50.614;13.830;2023-03-21T08:07:46;5.67;;;4.10;;
7213;SDS011;3648;50.614;13.830;2023-03-21T08:10:14;4.00;;;3.23;;
7213;SDS011;3648;50.614;13.830;2023-03-21T08:12:41;3.93;;;3.03;;
7213;SDS011;3648;50.614;13.830;2023-03-21T08:15:09;3.57;;;3.00;;
7213;SDS011;3648;50.614;13.830;2023-03-21T08:17:36;4.37;;;3.40;;
7213;SDS011;3648;50.614;13.830;2023-03-21T08:20:04;3.43;;;3.13;;
7213;SDS011;3648;50.614;13.830;2023-03-21T08:22:33;4.47;;;3.00;;
7213;SDS011;3648;50.614;13.830;2023-03-21T08:25:02;3.43;;;2.73;;
7213;SDS011;3648;50.614;13.830;2023-03-21T08:27:30;5.33;;;3.00;;
7213;SDS011;3648;50.614;13.830;2023-03-21T08:29:57;5.53;;;3.40;;
7213;SDS011;3648;50.614;13.830;2023-03-21T08:32:25;7.93;;;4.20;;
7213;SDS011;3648;50.614;13.830;2023-03-21T08:34:56;4.37;;;3.00;;
7213;SDS011;3648;50.614;13.830;2023-03-21T08:37:24;3.93;;;3.03;;
7213;SDS011;3648;50.614;13.830;2023-03-21T08:39:51;3.37;;;2.70;;
7213;SDS011;3648;50.614;13.830;2023-03-21T08:42:20;5.23;;;3.17;;
7213;SDS011;3648;50.614;13.830;2023-03-21T08:44:47;4.73;;;3.90;;
7213;SDS011;3648;50.614;13.830;2023-03-21T08:47:14;4.70;;;3.27;;
7213;SDS011;3648;50.614;13.830;2023-03-21T08:49:41;6.67;;;4.07;;
7213;SDS011;3648;50.614;13.830;2023-03-21T08:52:10;5.27;;;3.33;;
7213;SDS011;3648;50.614;13.830;2023-03-21T08:54:37;4.93;;;2.53;;
7213;SDS011;3648;50.614;13.830;2023-03-21T08:57:05;4.90;;;3.20;;
7213;SDS011;3648;50.614;13.830;2023-03-21T08:59:36;4.83;;;3.60;;
7213;SDS011;3648;50.614;13.830;2023-03-21T09:02:03;4.83;;;3.03;;
7213;SDS011;3648;50.614;13.830;2023-03-21T09:04:30;3.83;;;2.33;;
7213;SDS011;3648;50.614;13.830;2023-03-21T09:06:57;5.33;;;3.03;;
7213;SDS011;3648;50.614;13.830;2023-03-21T09:09:29;3.93;;;2.90;;
7213;SDS011;3648;50.614;13.830;2023-03-21T09:11:56;3.93;;;3.00;;
7213;SDS011;3648;50.614;13.830;2023-03-21T09:14:22;3.07;;;2.57;;
7213;SDS011;3648;50.614;13.830;2023-03-21T09:16:51;3.10;;;2.33;;
7213;SDS011;3648;50.614;13.830;2023-03-21T09:19:18;5.33;;;3.00;;
7213;SDS011;3648;50.614;13.830;2023-03-21T09:21:45;4.63;;;3.07;;
7213;SDS011;3648;50.614;13.830;2023-03-21T09:24:12;5.50;;;3.50;;
7213;SDS011;3648;50.614;13.830;2023-03-21T09:26:42;5.13;;;3.20;;
7213;SDS011;3648;50.614;13.830;2023-03-21T09:29:09;3.30;;;2.70;;
7213;SDS011;3648;50.614;13.830;2023-03-21T09:31:36;3.97;;;2.77;;
7213;SDS011;3648;50.614;13.830;2023-03-21T09:34:05;4.30;;;2.57;;
7213;SDS011;3648;50.614;13.830;2023-03-21T09:36:32;3.57;;;2.50;;
7213;SDS011;3648;50.614;13.830;2023-03-21T09:39:00;4.07;;;2.27;;
7213;SDS011;3648;50.614;13.830;2023-03-21T09:41:35;4.23;;;2.90;;
7213;SDS011;3648;50.614;13.830;2023-03-21T09:44:18;4.70;;;3.07;;
7213;SDS011;3648;50.614;13.830;2023-03-21T09:46:54;2.77;;;2.53;;
7213;SDS011;3648;50.614;13.830;2023-03-21T09:49:30;4.70;;;3.17;;
7213;SDS011;3648;50.614;13.830;2023-03-21T09:52:00;4.73;;;3.70;;
7213;SDS011;3648;50.614;13.830;2023-03-21T09:54:33;4.97;;;2.70;;
7213;SDS011;3648;50.614;13.830;2023-03-21T09:57:04;4.07;;;2.90;;
7213;SDS011;3648;50.614;13.830;2023-03-21T09:59:40;4.23;;;2.60;;
7213;SDS011;3648;50.614;13.830;2023-03-21T10:02:14;3.73;;;2.70;;
7213;SDS011;3648;50.614;13.830;2023-03-21T10:04:57;2.73;;;2.20;;
7213;SDS011;3648;50.614;13.830;2023-03-21T10:07:25;4.40;;;2.10;;
7213;SDS011;3648;50.614;13.830;2023-03-21T10:09:54;3.50;;;2.10;;
7213;SDS011;3648;50.614;13.830;2023-03-21T10:12:23;2.30;;;2.10;;
7213;SDS011;3648;50.614;13.830;2023-03-21T10:14:54;3.17;;;2.17;;
7213;SDS011;3648;50.614;13.830;2023-03-21T10:17:24;3.00;;;2.50;;
7213;SDS011;3648;50.614;13.830;2023-03-21T10:20:00;3.73;;;3.07;;
7213;SDS011;3648;50.614;13.830;2023-03-21T10:22:37;5.80;;;4.53;;
7213;SDS011;3648;50.614;13.830;2023-03-21T10:25:04;3.80;;;2.77;;
7213;SDS011;3648;50.614;13.830;2023-03-21T10:27:32;5.00;;;3.10;;
7213;SDS011;3648;50.614;13.830;2023-03-21T10:30:02;3.50;;;2.37;;
7213;SDS011;3648;50.614;13.830;2023-03-21T10:32:32;4.67;;;2.57;;
7213;SDS011;3648;50.614;13.830;2023-03-21T10:35:01;5.30;;;3.07;;
7213;SDS011;3648;50.614;13.830;2023-03-21T10:37:29;2.67;;;2.33;;
7213;SDS011;3648;50.614;13.830;2023-03-21T10:39:57;3.20;;;2.50;;
7213;SDS011;3648;50.614;13.830;2023-03-21T10:42:25;3.03;;;2.60;;
7213;SDS011;3648;50.614;13.830;2023-03-21T10:44:54;2.97;;;2.63;;
7213;SDS011;3648;50.614;13.830;2023-03-21T10:47:23;5.60;;;2.43;;
7213;SDS011;3648;50.614;13.830;2023-03-21T10:49:51;2.70;;;2.20;;
7213;SDS011;3648;50.614;13.830;2023-03-21T10:52:20;3.03;;;2.37;;
7213;SDS011;3648;50.614;13.830;2023-03-21T10:54:48;4.33;;;2.10;;
7213;SDS011;3648;50.614;13.830;2023-03-21T10:57:29;2.77;;;2.43;;
7213;SDS011;3648;50.614;13.830;2023-03-21T10:59:57;2.80;;;2.30;;
7213;SDS011;3648;50.614;13.830;2023-03-21T11:02:27;3.03;;;2.03;;
7213;SDS011;3648;50.614;13.830;2023-03-21T11:04:56;2.63;;;2.07;;
7213;SDS011;3648;50.614;13.830;2023-03-21T11:07:31;2.97;;;2.20;;
7213;SDS011;3648;50.614;13.830;2023-03-21T11:09:59;3.73;;;2.90;;
7213;SDS011;3648;50.614;13.830;2023-03-21T11:12:38;3.50;;;2.50;;
7213;SDS011;3648;50.614;13.830;2023-03-21T11:15:24;2.83;;;2.50;;
7213;SDS011;3648;50.614;13.830;2023-03-21T11:17:54;4.57;;;3.50;;
7213;SDS011;3648;50.614;13.830;2023-03-21T11:20:22;6.07;;;3.43;;
7213;SDS011;3648;50.614;13.830;2023-03-21T11:22:52;5.63;;;3.70;;
7213;SDS011;3648;50.614;13.830;2023-03-21T11:25:21;6.67;;;3.10;;
7213;SDS011;3648;50.614;13.830;2023-03-21T11:27:53;3.67;;;2.37;;
7213;SDS011;3648;50.614;13.830;2023-03-21T11:30:21;2.53;;;1.80;;
7213;SDS011;3648;50.614;13.830;2023-03-21T11:32:50;3.40;;;2.03;;
7213;SDS011;3648;50.614;13.830;2023-03-21T11:35:20;2.63;;;2.10;;
7213;SDS011;3648;50.614;13.830;2023-03-21T11:37:51;2.87;;;2.10;;
7213;SDS011;3648;50.614;13.830;2023-03-21T11:40:21;1.70;;;1.37;;
7213;SDS011;3648;50.614;13.830;2023-03-21T11:42:50;2.47;;;1.70;;
7213;SDS011;3648;50.614;13.830;2023-03-21T11:45:19;1.90;;;1.53;;
7213;SDS011;3648;50.614;13.830;2023-03-21T11:47:48;3.43;;;1.70;;
7213;SDS011;3648;50.614;13.830;2023-03-21T11:50:22;1.53;;;1.40;;
7213;SDS011;3648;50.614;13.830;2023-03-21T11:53:01;2.10;;;1.57;;
7213;SDS011;3648;50.614;13.830;2023-03-21T11:55:45;2.47;;;1.57;;
7213;SDS011;3648;50.614;13.830;2023-03-21T11:58:27;1.97;;;1.63;;
7213;SDS011;3648;50.614;13.830;2023-03-21T12:01:04;1.80;;;1.60;;
7213;SDS011;3648;50.614;13.830;2023-03-21T12:03:44;1.77;;;1.50;;
7213;SDS011;3648;50.614;13.830;2023-03-21T12:06:16;5.00;;;3.97;;
7213;SDS011;3648;50.614;13.830;2023-03-21T12:08:53;4.23;;;2.03;;
7213;SDS011;3648;50.614;13.830;2023-03-21T12:11:33;2.73;;;2.17;;
7213;SDS011;3648;50.614;13.830;2023-03-21T12:14:08;1.97;;;1.70;;
7213;SDS011;3648;50.614;13.830;2023-03-21T12:16:45;3.00;;;1.83;;
7213;SDS011;3648;50.614;13.830;2023-03-21T12:22:31;1.90;;;1.50;;
7213;SDS011;3648;50.614;13.830;2023-03-21T12:25:10;5.37;;;2.33;;
7213;SDS011;3648;50.614;13.830;2023-03-21T12:27:42;4.40;;;1.83;;
7213;SDS011;3648;50.614;13.830;2023-03-21T12:30:18;3.23;;;1.53;;
7213;SDS011;3648;50.614;13.830;2023-03-21T12:33:05;2.73;;;1.53;;
7213;SDS011;3648;50.614;13.830;2023-03-21T12:35:55;1.63;;;1.50;;
7213;SDS011;3648;50.614;13.830;2023-03-21T12:38:42;2.63;;;1.60;;
7213;SDS011;3648;50.614;13.830;2023-03-21T12:41:19;1.70;;;1.53;;
7213;SDS011;3648;50.614;13.830;2023-03-21T12:43:50;2.00;;;1.70;;
7213;SDS011;3648;50.614;13.830;2023-03-21T12:46:23;1.87;;;1.57;;
7213;SDS011;3648;50.614;13.830;2023-03-21T12:48:57;4.20;;;1.60;;
7213;SDS011;3648;50.614;13.830;2023-03-21T12:51:28;6.10;;;2.00;;
7213;SDS011;3648;50.614;13.830;2023-03-21T12:53:59;2.20;;;1.60;;
7213;SDS011;3648;50.614;13.830;2023-03-21T12:56:35;3.37;;;1.70;;
7213;SDS011;3648;50.614;13.830;2023-03-21T12:59:12;1.90;;;1.70;;
7213;SDS011;3648;50.614;13.830;2023-03-21T13:01:44;2.17;;;1.53;;
7213;SDS011;3648;50.614;13.830;2023-03-21T13:04:22;2.13;;;1.53;;
7213;SDS011;3648;50.614;13.830;2023-03-21T13:07:09;1.77;;;1.67;;
7213;SDS011;3648;50.614;13.830;2023-03-21T13:09:40;2.23;;;2.03;;
7213;SDS011;3648;50.614;13.830;2023-03-21T13:12:18;2.43;;;1.60;;
7213;SDS011;3648;50.614;13.830;2023-03-21T13:14:54;3.57;;;2.37;;
7213;SDS011;3648;50.614;13.830;2023-03-21T13:17:31;2.23;;;2.03;;
7213;SDS011;3648;50.614;13.830;2023-03-21T13:20:03;2.30;;;1.77;;
7213;SDS011;3648;50.614;13.830;2023-03-21T13:22:39;2.40;;;1.70;;
7213;SDS011;3648;50.614;13.830;2023-03-21T13:25:14;2.90;;;1.83;;
7213;SDS011;3648;50.614;13.830;2023-03-21T13:27:46;4.53;;;2.00;;
7213;SDS011;3648;50.614;13.830;2023-03-21T13:30:18;1.73;;;1.63;;
7213;SDS011;3648;50.614;13.830;2023-03-21T13:32:47;2.30;;;1.90;;
7213;SDS011;3648;50.614;13.830;2023-03-21T13:35:17;1.90;;;1.47;;
7213;SDS011;3648;50.614;13.830;2023-03-21T13:37:51;3.43;;;2.00;;
7213;SDS011;3648;50.614;13.830;2023-03-21T13:40:23;3.73;;;2.40;;
7213;SDS011;3648;50.614;13.830;2023-03-21T13:42:54;3.50;;;2.43;;
7213;SDS011;3648;50.614;13.830;2023-03-21T13:45:26;4.53;;;2.60;;
7213;SDS011;3648;50.614;13.830;2023-03-21T13:47:56;3.87;;;2.20;;
7213;SDS011;3648;50.614;13.830;2023-03-21T13:50:28;3.53;;;2.40;;
7213;SDS011;3648;50.614;13.830;2023-03-21T13:53:10;2.77;;;2.10;;
7213;SDS011;3648;50.614;13.830;2023-03-21T13:55:57;3.07;;;2.07;;
7213;SDS011;3648;50.614;13.830;2023-03-21T13:58:49;2.83;;;2.17;;
7213;SDS011;3648;50.614;13.830;2023-03-21T14:01:33;3.20;;;1.97;;
7213;SDS011;3648;50.614;13.830;2023-03-21T14:04:04;3.63;;;2.17;;
7213;SDS011;3648;50.614;13.830;2023-03-21T14:06:37;3.87;;;2.13;;
7213;SDS011;3648;50.614;13.830;2023-03-21T14:09:09;4.43;;;2.47;;
7213;SDS011;3648;50.614;13.830;2023-03-21T14:11:45;3.60;;;1.90;;
7213;SDS011;3648;50.614;13.830;2023-03-21T14:14:17;2.90;;;2.10;;
7213;SDS011;3648;50.614;13.830;2023-03-21T14:16:46;4.40;;;3.07;;
7213;SDS011;3648;50.614;13.830;2023-03-21T14:19:13;4.67;;;2.90;;
7213;SDS011;3648;50.614;13.830;2023-03-21T14:21:45;4.57;;;2.90;;
7213;SDS011;3648;50.614;13.830;2023-03-21T14:24:15;3.97;;;2.50;;
7213;SDS011;3648;50.614;13.830;2023-03-21T14:26:44;3.07;;;2.50;;
7213;SDS011;3648;50.614;13.830;2023-03-21T14:29:15;4.10;;;2.37;;
7213;SDS011;3648;50.614;13.830;2023-03-21T14:31:49;2.77;;;1.93;;
7213;SDS011;3648;50.614;13.830;2023-03-21T14:34:16;2.93;;;1.87;;
7213;SDS011;3648;50.614;13.830;2023-03-21T14:36:43;3.57;;;1.90;;
7213;SDS011;3648;50.614;13.830;2023-03-21T14:39:12;2.60;;;1.73;;
7213;SDS011;3648;50.614;13.830;2023-03-21T14:41:45;3.53;;;1.73;;
7213;SDS011;3648;50.614;13.830;2023-03-21T14:44:16;2.90;;;1.80;;
7213;SDS011;3648;50.614;13.830;2023-03-21T14:46:50;2.83;;;1.70;;
7213;SDS011;3648;50.614;13.830;2023-03-21T14:49:20;3.53;;;2.27;;
7213;SDS011;3648;50.614;13.830;2023-03-21T14:51:52;2.70;;;1.90;;
7213;SDS011;3648;50.614;13.830;2023-03-21T14:54:20;2.10;;;1.50;;
7213;SDS011;3648;50.614;13.830;2023-03-21T14:56:49;2.87;;;2.00;;
7213;SDS011;3648;50.614;13.830;2023-03-21T14:59:19;3.43;;;2.10;;
7213;SDS011;3648;50.614;13.830;2023-03-21T15:01:49;3.77;;;2.07;;
7213;SDS011;3648;50.614;13.830;2023-03-21T15:04:19;2.80;;;1.93;;
7213;SDS011;3648;50.614;13.830;2023-03-21T15:06:48;3.77;;;1.93;;
7213;SDS011;3648;50.614;13.830;2023-03-21T15:09:21;2.30;;;1.50;;
7213;SDS011;3648;50.614;13.830;2023-03-21T15:11:51;2.30;;;1.40;;
7213;SDS011;3648;50.614;13.830;2023-03-21T15:14:21;1.97;;;1.67;;
7213;SDS011;3648;50.614;13.830;2023-03-21T15:16:56;2.53;;;1.40;;
7213;SDS011;3648;50.614;13.830;2023-03-21T15:19:27;1.70;;;1.30;;
7213;SDS011;3648;50.614;13.830;2023-03-21T15:21:59;2.77;;;2.00;;
7213;SDS011;3648;50.614;13.830;2023-03-21T15:24:32;1.90;;;1.60;;
7213;SDS011;3648;50.614;13.830;2023-03-21T15:27:03;3.30;;;1.70;;
7213;SDS011;3648;50.614;13.830;2023-03-21T15:29:32;2.40;;;1.73;;
7213;SDS011;3648;50.614;13.830;2023-03-21T15:32:04;4.60;;;1.87;;
7213;SDS011;3648;50.614;13.830;2023-03-21T15:34:36;2.90;;;2.60;;
7213;SDS011;3648;50.614;13.830;2023-03-21T15:37:04;4.37;;;3.63;;